Airfield :
LOGIN :

Register | Disclaimer

   EN    FR    IT 

 










Legend :    VFR   Marginal VFR   IFR   Intensive IFR   Very Intensive IFR
Visi :
Ceiling :
>= 8 km
>= 3000ft
5 to 8 km
1000 to 3000 ft
1500m to 5 km
500 to 1000 ft
800 to 1500m
200 to 500 ft
< 800m
< 200 ft
Symbols :   Thunderstorms  Fog  Heavy snow  Heavy precipitations  Wind > 20 kt
SIGMETs :     Misc.  Thunderstorms  Icing  Turbulence  Mountain Waves  Volcanic Ashes






- Airport Elevation : 158 ft
- IATA code : QAR


EHDL - Deelen Airbase

CURRENT METAR :
  • 201325Z AUTO 32012KT 260V010 9999 FEW027 SCT030 BKN036 04/00 Q1027 BLU

EXPIRED METARs :
  • 201255Z AUTO 33014KT 270V020 9999 FEW027 SCT030 BKN054 04/00 Q1028 BLU
  • 201225Z AUTO 32007KT 270V010 9999 FEW060 BKN066 03/02 Q1028 RESNRA BLU
  • 201155Z AUTO 33018G30KT 300V060 9999 RA FEW006 SCT018 BKN021 02/M00 Q1028 WHT
  • 201125Z AUTO 32016G28KT 280V030 9999 SCT028 BKN031 BKN035 04/M00 Q1028 BLU
  • 201055Z AUTO 30009KT 260V020 9999 FEW023 SCT033 BKN040 04/01 Q1028 BLU

Expired Forecast.



MET'MAP, your aeronautical weather chart ! - Copyright ORBIFLY December 2007 - Disclaimer

ORBIFLY MET'MAP TEAM :

Programming & Development : Alexandra Zaïnal
Concept & original design : Baudouin d'Aumeries
Assistance for programming : Marc-Olivier Méhu
Technical & hardware support : Manuel Goepfert

Contact : metmap@orbifly.com




SOURCES & CREDITS :

   NOAA